sensor_id;sensor_type;location;lat;lon;timestamp;temperature;humidity
75442;DHT22;64019;48.312;14.226;2023-03-16T00:00:39;0.70;99.90
75442;DHT22;64019;48.312;14.226;2023-03-16T00:03:05;0.60;99.90
75442;DHT22;64019;48.312;14.226;2023-03-16T00:05:30;0.60;99.90
75442;DHT22;64019;48.312;14.226;2023-03-16T00:07:56;0.60;99.90
75442;DHT22;64019;48.312;14.226;2023-03-16T00:10:22;0.60;99.90
75442;DHT22;64019;48.312;14.226;2023-03-16T00:12:52;0.50;99.90
75442;DHT22;64019;48.312;14.226;2023-03-16T00:15:18;0.50;99.90
75442;DHT22;64019;48.312;14.226;2023-03-16T00:17:44;0.50;99.90
75442;DHT22;64019;48.312;14.226;2023-03-16T00:20:14;0.40;99.90
75442;DHT22;64019;48.312;14.226;2023-03-16T00:22:40;0.40;99.90
75442;DHT22;64019;48.312;14.226;2023-03-16T00:25:07;0.30;99.90
75442;DHT22;64019;48.312;14.226;2023-03-16T00:27:33;0.30;99.90
75442;DHT22;64019;48.312;14.226;2023-03-16T00:29:59;0.30;99.90
75442;DHT22;64019;48.312;14.226;2023-03-16T00:32:30;0.30;99.90
75442;DHT22;64019;48.312;14.226;2023-03-16T00:34:59;0.30;99.90
75442;DHT22;64019;48.312;14.226;2023-03-16T00:37:27;0.30;99.90
75442;DHT22;64019;48.312;14.226;2023-03-16T00:39:53;0.30;99.90
75442;DHT22;64019;48.312;14.226;2023-03-16T00:42:27;0.30;99.90
75442;DHT22;64019;48.312;14.226;2023-03-16T00:44:56;0.30;99.90
75442;DHT22;64019;48.312;14.226;2023-03-16T00:47:24;0.30;99.90
75442;DHT22;64019;48.312;14.226;2023-03-16T00:49:51;0.20;99.90
75442;DHT22;64019;48.312;14.226;2023-03-16T00:52:17;0.20;99.90
75442;DHT22;64019;48.312;14.226;2023-03-16T00:54:44;0.20;99.90
75442;DHT22;64019;48.312;14.226;2023-03-16T00:57:12;0.20;99.90
75442;DHT22;64019;48.312;14.226;2023-03-16T00:59:39;0.20;99.90
75442;DHT22;64019;48.312;14.226;2023-03-16T01:02:06;0.20;99.90
75442;DHT22;64019;48.312;14.226;2023-03-16T01:04:32;0.30;99.90
75442;DHT22;64019;48.312;14.226;2023-03-16T01:06:59;0.30;99.90
75442;DHT22;64019;48.312;14.226;2023-03-16T01:09:24;0.20;99.90
75442;DHT22;64019;48.312;14.226;2023-03-16T01:11:50;0.20;99.90
75442;DHT22;64019;48.312;14.226;2023-03-16T01:14:20;0.20;99.90
75442;DHT22;64019;48.312;14.226;2023-03-16T01:16:46;0.30;99.90
75442;DHT22;64019;48.312;14.226;2023-03-16T01:19:13;0.30;99.90
75442;DHT22;64019;48.312;14.226;2023-03-16T01:21:39;0.20;99.90
75442;DHT22;64019;48.312;14.226;2023-03-16T01:24:07;0.30;99.90
75442;DHT22;64019;48.312;14.226;2023-03-16T01:26:33;0.30;99.90
75442;DHT22;64019;48.312;14.226;2023-03-16T01:28:59;0.20;99.90
75442;DHT22;64019;48.312;14.226;2023-03-16T01:31:24;0.00;99.90
75442;DHT22;64019;48.312;14.226;2023-03-16T01:33:50;0.10;99.90
75442;DHT22;64019;48.312;14.226;2023-03-16T01:36:18;0.20;99.90
75442;DHT22;64019;48.312;14.226;2023-03-16T01:38:44;0.20;99.90
75442;DHT22;64019;48.312;14.226;2023-03-16T01:41:10;0.20;99.90
75442;DHT22;64019;48.312;14.226;2023-03-16T01:43:37;0.20;99.90
75442;DHT22;64019;48.312;14.226;2023-03-16T01:48:37;0.10;99.90
75442;DHT22;64019;48.312;14.226;2023-03-16T01:51:06;0.20;99.90
75442;DHT22;64019;48.312;14.226;2023-03-16T01:53:34;0.10;99.90
75442;DHT22;64019;48.312;14.226;2023-03-16T01:56:02;0.10;99.90
75442;DHT22;64019;48.312;14.226;2023-03-16T01:58:29;0.10;99.90
75442;DHT22;64019;48.312;14.226;2023-03-16T02:00:55;0.00;99.90
75442;DHT22;64019;48.312;14.226;2023-03-16T02:03:24;0.10;99.90
75442;DHT22;64019;48.312;14.226;2023-03-16T02:08:30;0.10;99.90
75442;DHT22;64019;48.312;14.226;2023-03-16T02:10:56;0.10;99.90
75442;DHT22;64019;48.312;14.226;2023-03-16T02:13:24;0.00;99.90
75442;DHT22;64019;48.312;14.226;2023-03-16T02:15:51;0.00;99.90
75442;DHT22;64019;48.312;14.226;2023-03-16T02:18:18;0.00;99.90
75442;DHT22;64019;48.312;14.226;2023-03-16T02:20:50;0.00;99.90
75442;DHT22;64019;48.312;14.226;2023-03-16T02:23:19;0.00;99.90
75442;DHT22;64019;48.312;14.226;2023-03-16T02:26:08;0.00;99.90
75442;DHT22;64019;48.312;14.226;2023-03-16T02:28:44;0.00;99.90
75442;DHT22;64019;48.312;14.226;2023-03-16T02:31:14;0.00;99.90
75442;DHT22;64019;48.312;14.226;2023-03-16T02:33:42;-0.10;99.90
75442;DHT22;64019;48.312;14.226;2023-03-16T02:36:08;-0.30;99.90
75442;DHT22;64019;48.312;14.226;2023-03-16T02:38:34;-0.30;99.90
75442;DHT22;64019;48.312;14.226;2023-03-16T02:41:14;-0.20;99.90
75442;DHT22;64019;48.312;14.226;2023-03-16T02:43:45;-0.20;99.90
75442;DHT22;64019;48.312;14.226;2023-03-16T02:46:12;-0.20;99.90
75442;DHT22;64019;48.312;14.226;2023-03-16T02:51:13;-0.20;99.90
75442;DHT22;64019;48.312;14.226;2023-03-16T02:53:39;-0.30;99.90
75442;DHT22;64019;48.312;14.226;2023-03-16T02:56:05;-0.30;99.90
75442;DHT22;64019;48.312;14.226;2023-03-16T02:58:31;-0.40;99.90
75442;DHT22;64019;48.312;14.226;2023-03-16T03:00:57;-0.40;99.90
75442;DHT22;64019;48.312;14.226;2023-03-16T03:03:22;-0.50;99.90
75442;DHT22;64019;48.312;14.226;2023-03-16T03:05:48;-0.50;99.90
75442;DHT22;64019;48.312;14.226;2023-03-16T03:08:14;-0.40;99.90
75442;DHT22;64019;48.312;14.226;2023-03-16T03:10:40;-0.40;99.90
75442;DHT22;64019;48.312;14.226;2023-03-16T03:13:06;-0.40;99.90
75442;DHT22;64019;48.312;14.226;2023-03-16T03:15:34;-0.50;99.90
75442;DHT22;64019;48.312;14.226;2023-03-16T03:18:00;-0.60;99.90
75442;DHT22;64019;48.312;14.226;2023-03-16T03:20:26;-0.70;99.90
75442;DHT22;64019;48.312;14.226;2023-03-16T03:22:52;-0.70;99.90
75442;DHT22;64019;48.312;14.226;2023-03-16T03:25:18;-0.70;99.90
75442;DHT22;64019;48.312;14.226;2023-03-16T03:27:45;-0.70;99.90
75442;DHT22;64019;48.312;14.226;2023-03-16T03:30:17;-0.60;99.90
75442;DHT22;64019;48.312;14.226;2023-03-16T03:32:43;-0.70;99.90
75442;DHT22;64019;48.312;14.226;2023-03-16T03:35:11;-0.70;99.90
75442;DHT22;64019;48.312;14.226;2023-03-16T03:37:38;-0.80;99.90
75442;DHT22;64019;48.312;14.226;2023-03-16T03:40:05;-0.80;99.90
75442;DHT22;64019;48.312;14.226;2023-03-16T03:42:32;-0.80;99.90
75442;DHT22;64019;48.312;14.226;2023-03-16T03:44:58;-0.70;99.90
75442;DHT22;64019;48.312;14.226;2023-03-16T03:47:23;-0.70;99.90
75442;DHT22;64019;48.312;14.226;2023-03-16T03:49:49;-0.70;99.90
75442;DHT22;64019;48.312;14.226;2023-03-16T03:52:15;-0.70;99.90
75442;DHT22;64019;48.312;14.226;2023-03-16T03:54:40;-0.80;99.90
75442;DHT22;64019;48.312;14.226;2023-03-16T03:57:06;-0.70;99.90
75442;DHT22;64019;48.312;14.226;2023-03-16T03:59:31;-0.70;99.90
75442;DHT22;64019;48.312;14.226;2023-03-16T04:01:57;-0.80;99.90
75442;DHT22;64019;48.312;14.226;2023-03-16T04:04:23;-0.80;99.90
75442;DHT22;64019;48.312;14.226;2023-03-16T04:06:48;-0.70;99.90
75442;DHT22;64019;48.312;14.226;2023-03-16T04:09:16;-0.70;99.90
75442;DHT22;64019;48.312;14.226;2023-03-16T04:11:41;-0.70;99.90
75442;DHT22;64019;48.312;14.226;2023-03-16T04:14:07;-0.70;99.90
75442;DHT22;64019;48.312;14.226;2023-03-16T04:16:33;-0.70;99.90
75442;DHT22;64019;48.312;14.226;2023-03-16T04:18:59;-0.80;99.90
75442;DHT22;64019;48.312;14.226;2023-03-16T04:21:24;-0.80;99.90
75442;DHT22;64019;48.312;14.226;2023-03-16T04:23:50;-0.80;99.90
75442;DHT22;64019;48.312;14.226;2023-03-16T04:26:21;-0.90;99.90
75442;DHT22;64019;48.312;14.226;2023-03-16T04:28:49;-0.90;99.90
75442;DHT22;64019;48.312;14.226;2023-03-16T04:31:17;-0.80;99.90
75442;DHT22;64019;48.312;14.226;2023-03-16T04:33:42;-0.90;99.90
75442;DHT22;64019;48.312;14.226;2023-03-16T04:36:08;-0.90;99.90
75442;DHT22;64019;48.312;14.226;2023-03-16T04:38:34;-0.90;99.90
75442;DHT22;64019;48.312;14.226;2023-03-16T04:41:00;-1.00;99.90
75442;DHT22;64019;48.312;14.226;2023-03-16T04:43:26;-1.00;99.90
75442;DHT22;64019;48.312;14.226;2023-03-16T04:45:52;-1.00;99.90
75442;DHT22;64019;48.312;14.226;2023-03-16T04:48:18;-1.00;99.90
75442;DHT22;64019;48.312;14.226;2023-03-16T04:50:44;-1.10;99.90
75442;DHT22;64019;48.312;14.226;2023-03-16T04:53:10;-1.10;99.90
75442;DHT22;64019;48.312;14.226;2023-03-16T04:55:35;-1.10;99.90
75442;DHT22;64019;48.312;14.226;2023-03-16T04:58:01;-1.10;99.90
75442;DHT22;64019;48.312;14.226;2023-03-16T05:00:27;-1.10;99.90
75442;DHT22;64019;48.312;14.226;2023-03-16T05:02:52;-1.10;99.90
75442;DHT22;64019;48.312;14.226;2023-03-16T05:05:18;-1.10;99.90
75442;DHT22;64019;48.312;14.226;2023-03-16T05:07:45;-1.10;99.90
75442;DHT22;64019;48.312;14.226;2023-03-16T05:10:13;-1.20;99.90
75442;DHT22;64019;48.312;14.226;2023-03-16T05:12:39;-1.20;99.90
75442;DHT22;64019;48.312;14.226;2023-03-16T05:15:05;-1.30;99.90
75442;DHT22;64019;48.312;14.226;2023-03-16T05:17:31;-1.30;99.90
75442;DHT22;64019;48.312;14.226;2023-03-16T05:19:57;-1.30;99.90
75442;DHT22;64019;48.312;14.226;2023-03-16T05:22:23;-1.20;99.90
75442;DHT22;64019;48.312;14.226;2023-03-16T05:24:50;-1.10;99.90
75442;DHT22;64019;48.312;14.226;2023-03-16T05:27:16;-1.10;99.90
75442;DHT22;64019;48.312;14.226;2023-03-16T05:29:41;-1.20;99.90
75442;DHT22;64019;48.312;14.226;2023-03-16T05:32:13;-1.20;99.90
75442;DHT22;64019;48.312;14.226;2023-03-16T05:34:39;-1.30;99.90
75442;DHT22;64019;48.312;14.226;2023-03-16T05:37:08;-1.20;99.90
75442;DHT22;64019;48.312;14.226;2023-03-16T05:39:34;-1.20;99.90
75442;DHT22;64019;48.312;14.226;2023-03-16T05:41:59;-1.10;99.90
75442;DHT22;64019;48.312;14.226;2023-03-16T05:44:25;-1.10;99.90
75442;DHT22;64019;48.312;14.226;2023-03-16T05:50:53;-0.90;99.90
75442;DHT22;64019;48.312;14.226;2023-03-16T05:53:19;-0.80;99.90
75442;DHT22;64019;48.312;14.226;2023-03-16T05:55:51;-0.80;99.90
75442;DHT22;64019;48.312;14.226;2023-03-16T05:58:16;-0.80;99.90
75442;DHT22;64019;48.312;14.226;2023-03-16T06:00:42;-0.80;99.90
75442;DHT22;64019;48.312;14.226;2023-03-16T06:03:08;-0.80;99.90
75442;DHT22;64019;48.312;14.226;2023-03-16T06:05:33;-0.70;99.90
75442;DHT22;64019;48.312;14.226;2023-03-16T06:07:59;-0.60;99.90
75442;DHT22;64019;48.312;14.226;2023-03-16T06:10:25;-0.60;99.90
75442;DHT22;64019;48.312;14.226;2023-03-16T06:12:52;-0.50;99.90
75442;DHT22;64019;48.312;14.226;2023-03-16T06:15:18;-0.40;99.90
75442;DHT22;64019;48.312;14.226;2023-03-16T06:17:43;-0.30;99.90
75442;DHT22;64019;48.312;14.226;2023-03-16T06:20:11;-0.20;99.90
75442;DHT22;64019;48.312;14.226;2023-03-16T06:22:39;-0.10;99.90
75442;DHT22;64019;48.312;14.226;2023-03-16T06:25:06;-0.10;99.90
75442;DHT22;64019;48.312;14.226;2023-03-16T06:27:32;0.00;99.90
75442;DHT22;64019;48.312;14.226;2023-03-16T06:29:57;0.10;99.90
75442;DHT22;64019;48.312;14.226;2023-03-16T06:32:23;0.20;99.90
75442;DHT22;64019;48.312;14.226;2023-03-16T06:34:49;0.30;99.90
75442;DHT22;64019;48.312;14.226;2023-03-16T06:37:14;0.40;99.90
75442;DHT22;64019;48.312;14.226;2023-03-16T06:39:40;0.50;99.90
75442;DHT22;64019;48.312;14.226;2023-03-16T06:42:06;0.60;99.90
75442;DHT22;64019;48.312;14.226;2023-03-16T06:44:31;0.70;99.90
75442;DHT22;64019;48.312;14.226;2023-03-16T06:46:57;0.70;99.90
75442;DHT22;64019;48.312;14.226;2023-03-16T06:49:23;0.80;99.90
75442;DHT22;64019;48.312;14.226;2023-03-16T06:51:49;0.80;99.90
75442;DHT22;64019;48.312;14.226;2023-03-16T06:54:15;0.90;99.90
75442;DHT22;64019;48.312;14.226;2023-03-16T06:56:40;1.00;99.90
75442;DHT22;64019;48.312;14.226;2023-03-16T06:59:06;1.10;99.90
75442;DHT22;64019;48.312;14.226;2023-03-16T07:01:32;1.10;99.90
75442;DHT22;64019;48.312;14.226;2023-03-16T07:03:57;1.20;99.90
75442;DHT22;64019;48.312;14.226;2023-03-16T07:06:23;1.30;99.90
75442;DHT22;64019;48.312;14.226;2023-03-16T07:08:49;1.40;99.90
75442;DHT22;64019;48.312;14.226;2023-03-16T07:11:15;1.40;99.90
75442;DHT22;64019;48.312;14.226;2023-03-16T07:13:40;1.50;99.90
75442;DHT22;64019;48.312;14.226;2023-03-16T07:16:07;1.60;99.90
75442;DHT22;64019;48.312;14.226;2023-03-16T07:18:32;1.60;99.90
75442;DHT22;64019;48.312;14.226;2023-03-16T07:20:58;1.70;99.90
75442;DHT22;64019;48.312;14.226;2023-03-16T07:23:24;1.80;99.90
75442;DHT22;64019;48.312;14.226;2023-03-16T07:25:51;2.00;99.90
75442;DHT22;64019;48.312;14.226;2023-03-16T07:28:17;2.10;99.90
75442;DHT22;64019;48.312;14.226;2023-03-16T07:30:46;2.10;99.90
75442;DHT22;64019;48.312;14.226;2023-03-16T07:33:12;2.30;99.90
75442;DHT22;64019;48.312;14.226;2023-03-16T07:35:38;2.40;99.90
75442;DHT22;64019;48.312;14.226;2023-03-16T07:38:04;2.50;99.90
75442;DHT22;64019;48.312;14.226;2023-03-16T07:40:30;2.60;99.90
75442;DHT22;64019;48.312;14.226;2023-03-16T07:42:56;2.70;99.90
75442;DHT22;64019;48.312;14.226;2023-03-16T07:45:22;2.80;99.90
75442;DHT22;64019;48.312;14.226;2023-03-16T07:47:47;2.90;99.90
75442;DHT22;64019;48.312;14.226;2023-03-16T07:50:13;3.00;99.90
75442;DHT22;64019;48.312;14.226;2023-03-16T07:52:41;3.00;99.90
75442;DHT22;64019;48.312;14.226;2023-03-16T07:55:07;3.10;99.90
75442;DHT22;64019;48.312;14.226;2023-03-16T07:57:33;3.20;99.90
75442;DHT22;64019;48.312;14.226;2023-03-16T07:59:58;3.20;99.90
75442;DHT22;64019;48.312;14.226;2023-03-16T08:02:24;3.20;99.90
75442;DHT22;64019;48.312;14.226;2023-03-16T08:04:50;3.30;99.90
75442;DHT22;64019;48.312;14.226;2023-03-16T08:07:16;3.40;99.90
75442;DHT22;64019;48.312;14.226;2023-03-16T08:09:42;3.50;99.90
75442;DHT22;64019;48.312;14.226;2023-03-16T08:12:08;3.40;99.90
75442;DHT22;64019;48.312;14.226;2023-03-16T08:14:34;3.40;99.90
75442;DHT22;64019;48.312;14.226;2023-03-16T08:17:02;3.50;99.90
75442;DHT22;64019;48.312;14.226;2023-03-16T08:19:28;3.60;99.90
75442;DHT22;64019;48.312;14.226;2023-03-16T08:21:55;3.70;99.90
75442;DHT22;64019;48.312;14.226;2023-03-16T08:24:20;3.70;99.90
75442;DHT22;64019;48.312;14.226;2023-03-16T08:26:46;3.80;99.90
75442;DHT22;64019;48.312;14.226;2023-03-16T08:29:12;3.90;99.90
75442;DHT22;64019;48.312;14.226;2023-03-16T08:31:38;3.90;99.90
75442;DHT22;64019;48.312;14.226;2023-03-16T08:34:07;3.90;99.90
75442;DHT22;64019;48.312;14.226;2023-03-16T08:36:32;4.00;99.90
75442;DHT22;64019;48.312;14.226;2023-03-16T08:38:58;3.90;99.90
75442;DHT22;64019;48.312;14.226;2023-03-16T08:41:24;3.90;99.90
75442;DHT22;64019;48.312;14.226;2023-03-16T08:43:50;4.00;99.90
75442;DHT22;64019;48.312;14.226;2023-03-16T08:46:16;4.00;99.90
75442;DHT22;64019;48.312;14.226;2023-03-16T08:48:42;4.10;99.90
75442;DHT22;64019;48.312;14.226;2023-03-16T08:51:09;4.10;99.90
75442;DHT22;64019;48.312;14.226;2023-03-16T08:53:35;4.10;99.90
75442;DHT22;64019;48.312;14.226;2023-03-16T08:56:06;4.30;99.90
75442;DHT22;64019;48.312;14.226;2023-03-16T08:58:33;4.20;99.90
75442;DHT22;64019;48.312;14.226;2023-03-16T09:01:04;4.30;99.90
75442;DHT22;64019;48.312;14.226;2023-03-16T09:03:31;4.40;99.90
75442;DHT22;64019;48.312;14.226;2023-03-16T09:06:05;4.30;99.90
75442;DHT22;64019;48.312;14.226;2023-03-16T09:08:31;4.30;99.90
75442;DHT22;64019;48.312;14.226;2023-03-16T09:13:26;4.40;99.90
75442;DHT22;64019;48.312;14.226;2023-03-16T09:15:53;4.60;99.90
75442;DHT22;64019;48.312;14.226;2023-03-16T09:18:18;4.60;99.90
75442;DHT22;64019;48.312;14.226;2023-03-16T09:20:45;4.60;99.90
75442;DHT22;64019;48.312;14.226;2023-03-16T09:23:12;4.70;99.90
75442;DHT22;64019;48.312;14.226;2023-03-16T09:25:38;4.70;99.90
75442;DHT22;64019;48.312;14.226;2023-03-16T09:28:04;4.90;99.90
75442;DHT22;64019;48.312;14.226;2023-03-16T09:30:30;4.90;99.90
75442;DHT22;64019;48.312;14.226;2023-03-16T09:32:57;4.90;99.90
75442;DHT22;64019;48.312;14.226;2023-03-16T09:35:22;4.90;99.90
75442;DHT22;64019;48.312;14.226;2023-03-16T09:37:48;5.10;99.90
75442;DHT22;64019;48.312;14.226;2023-03-16T09:40:26;5.00;99.90
75442;DHT22;64019;48.312;14.226;2023-03-16T09:46:47;5.00;99.90
75442;DHT22;64019;48.312;14.226;2023-03-16T09:48:48;4.90;99.90
75442;DHT22;64019;48.312;14.226;2023-03-16T09:54:01;5.00;99.90
75442;DHT22;64019;48.312;14.226;2023-03-16T09:56:39;5.00;99.90
75442;DHT22;64019;48.312;14.226;2023-03-16T09:59:11;5.00;99.90
75442;DHT22;64019;48.312;14.226;2023-03-16T10:04:21;5.00;99.90
75442;DHT22;64019;48.312;14.226;2023-03-16T10:10:19;5.20;99.90
75442;DHT22;64019;48.312;14.226;2023-03-16T10:12:48;5.20;99.90
75442;DHT22;64019;48.312;14.226;2023-03-16T10:15:25;5.20;99.90
75442;DHT22;64019;48.312;14.226;2023-03-16T10:18:06;5.30;99.90
75442;DHT22;64019;48.312;14.226;2023-03-16T10:20:35;5.30;99.90
75442;DHT22;64019;48.312;14.226;2023-03-16T10:23:21;5.50;99.90
75442;DHT22;64019;48.312;14.226;2023-03-16T10:25:53;5.50;99.90
75442;DHT22;64019;48.312;14.226;2023-03-16T10:28:29;5.60;99.90
75442;DHT22;64019;48.312;14.226;2023-03-16T10:30:58;5.50;99.90
75442;DHT22;64019;48.312;14.226;2023-03-16T10:33:32;5.60;99.90
75442;DHT22;64019;48.312;14.226;2023-03-16T10:36:13;5.70;99.90
75442;DHT22;64019;48.312;14.226;2023-03-16T10:38:43;5.60;99.90
75442;DHT22;64019;48.312;14.226;2023-03-16T10:44:05;5.80;99.90
75442;DHT22;64019;48.312;14.226;2023-03-16T10:46:41;5.80;99.90
75442;DHT22;64019;48.312;14.226;2023-03-16T10:49:23;5.90;99.90
75442;DHT22;64019;48.312;14.226;2023-03-16T10:51:59;5.90;99.90
75442;DHT22;64019;48.312;14.226;2023-03-16T10:54:38;5.90;99.90
75442;DHT22;64019;48.312;14.226;2023-03-16T10:59:54;5.90;99.90
75442;DHT22;64019;48.312;14.226;2023-03-16T11:02:29;5.90;99.90
75442;DHT22;64019;48.312;14.226;2023-03-16T11:04:54;5.90;99.90
75442;DHT22;64019;48.312;14.226;2023-03-16T11:07:22;6.00;99.90
75442;DHT22;64019;48.312;14.226;2023-03-16T11:09:53;6.20;99.90
75442;DHT22;64019;48.312;14.226;2023-03-16T11:12:30;6.10;99.90
75442;DHT22;64019;48.312;14.226;2023-03-16T11:15:03;6.20;99.90
75442;DHT22;64019;48.312;14.226;2023-03-16T11:17:43;6.20;99.90
75442;DHT22;64019;48.312;14.226;2023-03-16T11:20:14;6.20;99.90
75442;DHT22;64019;48.312;14.226;2023-03-16T11:22:43;6.20;99.90
75442;DHT22;64019;48.312;14.226;2023-03-16T11:25:42;6.20;99.90
75442;DHT22;64019;48.312;14.226;2023-03-16T11:33:14;6.30;99.90
75442;DHT22;64019;48.312;14.226;2023-03-16T11:35:52;6.40;99.90
75442;DHT22;64019;48.312;14.226;2023-03-16T11:41:11;6.40;99.90
75442;DHT22;64019;48.312;14.226;2023-03-16T11:43:55;6.40;99.90
75442;DHT22;64019;48.312;14.226;2023-03-16T11:46:39;6.30;99.90
75442;DHT22;64019;48.312;14.226;2023-03-16T11:49:30;6.40;99.90
75442;DHT22;64019;48.312;14.226;2023-03-16T11:57:29;6.50;99.90
75442;DHT22;64019;48.312;14.226;2023-03-16T12:10:40;6.80;99.90
75442;DHT22;64019;48.312;14.226;2023-03-16T12:16:25;6.80;99.90
75442;DHT22;64019;48.312;14.226;2023-03-16T12:19:00;6.90;97.90
75442;DHT22;64019;48.312;14.226;2023-03-16T12:21:31;6.80;98.30
75442;DHT22;64019;48.312;14.226;2023-03-16T12:24:05;6.90;99.90
75442;DHT22;64019;48.312;14.226;2023-03-16T12:26:39;6.90;99.90
75442;DHT22;64019;48.312;14.226;2023-03-16T12:29:29;7.00;99.90
75442;DHT22;64019;48.312;14.226;2023-03-16T12:32:03;7.00;99.90
75442;DHT22;64019;48.312;14.226;2023-03-16T12:34:40;7.10;96.80
75442;DHT22;64019;48.312;14.226;2023-03-16T12:44:50;7.10;95.90
75442;DHT22;64019;48.312;14.226;2023-03-16T12:50:13;7.10;96.30
75442;DHT22;64019;48.312;14.226;2023-03-16T12:52:45;7.20;96.90
75442;DHT22;64019;48.312;14.226;2023-03-16T12:55:16;7.40;93.60
75442;DHT22;64019;48.312;14.226;2023-03-16T12:57:43;7.30;92.10
75442;DHT22;64019;48.312;14.226;2023-03-16T13:00:10;7.30;94.50
75442;DHT22;64019;48.312;14.226;2023-03-16T13:02:40;7.30;92.40
75442;DHT22;64019;48.312;14.226;2023-03-16T13:05:11;7.40;90.00
75442;DHT22;64019;48.312;14.226;2023-03-16T13:07:49;7.40;91.30
75442;DHT22;64019;48.312;14.226;2023-03-16T13:10:17;7.50;90.40
75442;DHT22;64019;48.312;14.226;2023-03-16T13:12:46;7.60;89.20
75442;DHT22;64019;48.312;14.226;2023-03-16T13:17:50;7.40;91.00
75442;DHT22;64019;48.312;14.226;2023-03-16T13:20:29;7.50;89.50
75442;DHT22;64019;48.312;14.226;2023-03-16T13:23:16;7.50;84.50
75442;DHT22;64019;48.312;14.226;2023-03-16T13:28:51;7.70;90.30
75442;DHT22;64019;48.312;14.226;2023-03-16T13:31:41;7.70;89.10
75442;DHT22;64019;48.312;14.226;2023-03-16T13:34:12;7.80;82.40
75442;DHT22;64019;48.312;14.226;2023-03-16T13:36:39;7.70;83.80
75442;DHT22;64019;48.312;14.226;2023-03-16T13:41:39;7.90;86.50
75442;DHT22;64019;48.312;14.226;2023-03-16T13:44:13;7.90;79.20
75442;DHT22;64019;48.312;14.226;2023-03-16T13:46:39;8.00;84.80
75442;DHT22;64019;48.312;14.226;2023-03-16T13:49:04;7.90;80.30
75442;DHT22;64019;48.312;14.226;2023-03-16T13:51:33;8.00;80.50
75442;DHT22;64019;48.312;14.226;2023-03-16T13:54:17;8.00;80.30
75442;DHT22;64019;48.312;14.226;2023-03-16T13:56:43;7.90;82.20
75442;DHT22;64019;48.312;14.226;2023-03-16T13:59:09;8.00;82.30
75442;DHT22;64019;48.312;14.226;2023-03-16T14:01:36;8.00;84.60
75442;DHT22;64019;48.312;14.226;2023-03-16T14:04:05;8.00;86.70
75442;DHT22;64019;48.312;14.226;2023-03-16T14:06:38;8.00;85.60
75442;DHT22;64019;48.312;14.226;2023-03-16T14:09:11;8.10;87.00
75442;DHT22;64019;48.312;14.226;2023-03-16T14:11:39;8.20;84.90
75442;DHT22;64019;48.312;14.226;2023-03-16T14:14:23;8.30;84.10
75442;DHT22;64019;48.312;14.226;2023-03-16T14:16:50;8.20;84.00
75442;DHT22;64019;48.312;14.226;2023-03-16T14:19:23;8.20;81.00
75442;DHT22;64019;48.312;14.226;2023-03-16T14:21:50;8.20;82.80
75442;DHT22;64019;48.312;14.226;2023-03-16T14:24:34;8.20;80.90
75442;DHT22;64019;48.312;14.226;2023-03-16T14:30:20;8.10;78.60
75442;DHT22;64019;48.312;14.226;2023-03-16T14:33:05;8.10;79.20
75442;DHT22;64019;48.312;14.226;2023-03-16T14:35:41;8.20;75.10
75442;DHT22;64019;48.312;14.226;2023-03-16T14:38:37;8.20;76.20
75442;DHT22;64019;48.312;14.226;2023-03-16T14:43:45;8.20;77.50
75442;DHT22;64019;48.312;14.226;2023-03-16T14:46:23;8.20;72.90
75442;DHT22;64019;48.312;14.226;2023-03-16T14:48:50;8.20;75.00
75442;DHT22;64019;48.312;14.226;2023-03-16T14:51:16;8.20;72.80
75442;DHT22;64019;48.312;14.226;2023-03-16T14:53:42;8.10;72.30
75442;DHT22;64019;48.312;14.226;2023-03-16T14:56:10;8.20;75.10
75442;DHT22;64019;48.312;14.226;2023-03-16T14:58:38;8.30;75.00
75442;DHT22;64019;48.312;14.226;2023-03-16T15:01:04;8.30;76.90
75442;DHT22;64019;48.312;14.226;2023-03-16T15:03:33;8.20;77.70
75442;DHT22;64019;48.312;14.226;2023-03-16T15:06:00;8.20;77.70
75442;DHT22;64019;48.312;14.226;2023-03-16T15:08:29;8.20;75.90
75442;DHT22;64019;48.312;14.226;2023-03-16T15:11:02;8.20;77.80
75442;DHT22;64019;48.312;14.226;2023-03-16T15:13:29;8.20;78.90
75442;DHT22;64019;48.312;14.226;2023-03-16T15:16:19;8.40;79.70
75442;DHT22;64019;48.312;14.226;2023-03-16T15:18:45;8.20;81.00
75442;DHT22;64019;48.312;14.226;2023-03-16T15:21:12;8.30;84.60
75442;DHT22;64019;48.312;14.226;2023-03-16T15:23:40;8.40;82.70
75442;DHT22;64019;48.312;14.226;2023-03-16T15:26:10;8.40;80.60
75442;DHT22;64019;48.312;14.226;2023-03-16T15:28:36;8.30;81.30
75442;DHT22;64019;48.312;14.226;2023-03-16T15:31:03;8.20;82.60
75442;DHT22;64019;48.312;14.226;2023-03-16T15:33:29;8.30;82.10
75442;DHT22;64019;48.312;14.226;2023-03-16T15:35:56;8.30;82.40
75442;DHT22;64019;48.312;14.226;2023-03-16T15:38:25;8.20;82.60
75442;DHT22;64019;48.312;14.226;2023-03-16T15:40:51;8.20;82.10
75442;DHT22;64019;48.312;14.226;2023-03-16T15:43:20;8.20;81.40
75442;DHT22;64019;48.312;14.226;2023-03-16T15:45:46;8.20;80.40
75442;DHT22;64019;48.312;14.226;2023-03-16T15:48:13;8.10;81.70
75442;DHT22;64019;48.312;14.226;2023-03-16T15:50:42;8.20;81.60
75442;DHT22;64019;48.312;14.226;2023-03-16T15:53:26;8.10;82.60
75442;DHT22;64019;48.312;14.226;2023-03-16T15:55:55;8.10;81.40
75442;DHT22;64019;48.312;14.226;2023-03-16T15:58:25;8.00;80.90
75442;DHT22;64019;48.312;14.226;2023-03-16T16:00:56;8.00;80.10
75442;DHT22;64019;48.312;14.226;2023-03-16T16:03:24;8.00;82.00
75442;DHT22;64019;48.312;14.226;2023-03-16T16:05:50;7.90;82.80
75442;DHT22;64019;48.312;14.226;2023-03-16T16:08:17;8.00;83.10
75442;DHT22;64019;48.312;14.226;2023-03-16T16:10:43;7.90;81.30
75442;DHT22;64019;48.312;14.226;2023-03-16T16:13:25;8.00;82.00
75442;DHT22;64019;48.312;14.226;2023-03-16T16:15:52;7.90;80.90
75442;DHT22;64019;48.312;14.226;2023-03-16T16:18:29;7.90;81.50
75442;DHT22;64019;48.312;14.226;2023-03-16T16:20:57;7.90;79.50
75442;DHT22;64019;48.312;14.226;2023-03-16T16:23:24;7.90;81.20
75442;DHT22;64019;48.312;14.226;2023-03-16T16:25:59;7.80;82.20
75442;DHT22;64019;48.312;14.226;2023-03-16T16:28:29;7.80;79.30
75442;DHT22;64019;48.312;14.226;2023-03-16T16:30:56;7.80;80.70
75442;DHT22;64019;48.312;14.226;2023-03-16T16:33:29;7.80;79.60
75442;DHT22;64019;48.312;14.226;2023-03-16T16:35:57;7.70;80.80
75442;DHT22;64019;48.312;14.226;2023-03-16T16:38:24;7.70;81.60
75442;DHT22;64019;48.312;14.226;2023-03-16T16:40:51;7.70;80.90
75442;DHT22;64019;48.312;14.226;2023-03-16T16:45:48;7.50;78.30
75442;DHT22;64019;48.312;14.226;2023-03-16T16:51:35;7.30;79.70
75442;DHT22;64019;48.312;14.226;2023-03-16T16:54:01;7.20;74.80
75442;DHT22;64019;48.312;14.226;2023-03-16T16:56:37;7.20;74.50
75442;DHT22;64019;48.312;14.226;2023-03-16T16:59:14;7.20;75.70
75442;DHT22;64019;48.312;14.226;2023-03-16T17:01:41;7.10;74.90
75442;DHT22;64019;48.312;14.226;2023-03-16T17:04:13;7.00;77.00
75442;DHT22;64019;48.312;14.226;2023-03-16T17:06:39;7.00;78.80